createdAt,value
2024-02-04T00:00:18.790Z,98856.68
2024-02-04T00:03:25.211Z,98859.83
2024-02-04T00:06:31.450Z,98856.48
2024-02-04T00:09:37.876Z,98861.60
2024-02-04T00:12:44.217Z,98861.33
2024-02-04T00:15:50.801Z,98856.71
2024-02-04T00:18:57.193Z,98857.07
2024-02-04T00:22:03.515Z,98861.48
2024-02-04T00:25:13.216Z,98860.92
2024-02-04T00:28:20.079Z,98859.57
2024-02-04T00:31:26.206Z,98849.67
2024-02-04T00:34:30.912Z,98837.08
2024-02-04T00:37:37.342Z,98824.79
2024-02-04T00:40:43.390Z,98820.08
2024-02-04T00:43:49.487Z,98817.64
2024-02-04T00:46:55.665Z,98818.00
2024-02-04T00:50:00.481Z,98813.88
2024-02-04T00:53:07.138Z,98810.70
2024-02-04T00:56:13.476Z,98809.34
2024-02-04T00:59:19.663Z,98813.81
2024-02-04T01:02:24.211Z,98816.57
2024-02-04T01:05:30.391Z,98815.69
2024-02-04T01:08:35.926Z,98819.48
2024-02-04T01:11:42.333Z,98822.87
2024-02-04T01:14:48.506Z,98820.41
2024-02-04T01:17:53.913Z,98819.58
2024-02-04T01:21:01.644Z,98814.59
2024-02-04T01:24:08.650Z,98804.46
2024-02-04T01:27:15.020Z,98799.20
2024-02-04T01:30:21.288Z,98796.41
2024-02-04T01:33:27.564Z,98799.06
2024-02-04T01:36:34.056Z,98799.02
2024-02-04T01:39:40.300Z,98793.52
2024-02-04T01:42:45.387Z,98788.52
2024-02-04T01:45:52.950Z,98784.96
2024-02-04T01:48:59.447Z,98781.42
2024-02-04T01:52:07.321Z,98780.52
2024-02-04T01:55:14.427Z,98782.95
2024-02-04T01:58:21.041Z,98789.95
2024-02-04T02:01:27.833Z,98783.75
2024-02-04T02:04:34.393Z,98783.11
2024-02-04T02:07:40.511Z,98779.11
2024-02-04T02:10:50.574Z,98769.39
2024-02-04T02:14:03.798Z,98771.94
2024-02-04T02:17:19.272Z,98775.88
2024-02-04T02:20:32.518Z,98778.21
2024-02-04T02:23:46.989Z,98783.09
2024-02-04T02:26:54.400Z,98780.39
2024-02-04T02:30:00.973Z,98773.77
2024-02-04T02:33:09.320Z,98771.11
2024-02-04T02:36:23.994Z,98766.10
2024-02-04T02:39:41.107Z,98759.86
2024-02-04T02:42:51.348Z,98757.54
2024-02-04T02:45:58.244Z,98747.29
2024-02-04T02:49:04.978Z,98746.15
2024-02-04T02:52:11.896Z,98748.05
2024-02-04T02:55:18.391Z,98743.31
2024-02-04T02:58:24.710Z,98740.71
2024-02-04T03:01:30.952Z,98747.71
2024-02-04T03:04:35.498Z,98749.61
2024-02-04T03:07:41.776Z,98751.48
2024-02-04T03:10:46.295Z,98749.71
2024-02-04T03:13:52.401Z,98747.52
2024-02-04T03:16:58.575Z,98751.70
2024-02-04T03:20:03.293Z,98763.94
2024-02-04T03:23:09.594Z,98766.91
2024-02-04T03:26:14.064Z,98787.70
2024-02-04T03:29:20.321Z,98805.08
2024-02-04T03:32:26.408Z,98828.73
2024-02-04T03:35:32.603Z,98836.58
2024-02-04T03:38:39.539Z,98843.80
2024-02-04T03:41:45.594Z,98838.55
2024-02-04T03:44:51.909Z,98833.79
2024-02-04T03:47:56.440Z,98826.91
2024-02-04T03:51:02.702Z,98820.02
2024-02-04T03:54:07.367Z,98812.30
2024-02-04T03:57:13.653Z,98810.47
2024-02-04T04:00:21.046Z,98804.16
2024-02-04T04:03:27.213Z,98806.77
2024-02-04T04:06:31.872Z,98805.31
2024-02-04T04:09:38.145Z,98806.21
2024-02-04T04:12:42.678Z,98801.48
2024-02-04T04:15:49.002Z,98807.63
2024-02-04T04:18:53.589Z,98812.05
2024-02-04T04:22:01.254Z,98811.98
2024-02-04T04:25:08.769Z,98817.13
2024-02-04T04:28:15.088Z,98804.36
2024-02-04T04:31:19.464Z,98809.93
2024-02-04T04:34:25.596Z,98814.54
2024-02-04T04:37:31.835Z,98819.02
2024-02-04T04:40:37.930Z,98820.75
2024-02-04T04:43:43.910Z,98818.98
2024-02-04T04:46:50.083Z,98816.84
2024-02-04T04:49:54.677Z,98806.14
2024-02-04T04:53:00.891Z,98804.05
2024-02-04T04:56:08.095Z,98807.43
2024-02-04T04:59:14.426Z,98807.84
2024-02-04T05:02:18.895Z,98798.19
2024-02-04T05:05:25.011Z,98793.81
2024-02-04T05:08:31.246Z,98793.94
2024-02-04T05:11:35.764Z,98786.45
2024-02-04T05:14:41.919Z,98783.50
2024-02-04T05:17:46.652Z,98790.77
2024-02-04T05:20:52.863Z,98794.17
2024-02-04T05:23:57.324Z,98788.89
2024-02-04T05:27:03.516Z,98789.23
2024-02-04T05:30:11.706Z,98792.95
2024-02-04T05:33:19.343Z,98791.98
2024-02-04T05:36:25.474Z,98800.30
2024-02-04T05:39:31.608Z,98808.89
2024-02-04T05:42:38.269Z,98814.41
2024-02-04T05:45:44.625Z,98814.11
2024-02-04T05:48:51.084Z,98806.67
2024-02-04T05:51:57.321Z,98814.36
2024-02-04T05:55:04.821Z,98820.44
2024-02-04T05:58:12.290Z,98815.92
2024-02-04T06:01:19.582Z,98807.88
2024-02-04T06:04:25.814Z,98798.64
2024-02-04T06:07:30.378Z,98801.70
2024-02-04T06:10:36.766Z,98799.92
2024-02-04T06:13:41.901Z,98808.86
2024-02-04T06:16:47.988Z,98807.55
2024-02-04T06:19:54.265Z,98805.70
2024-02-04T06:23:00.463Z,98805.80
2024-02-04T06:26:07.156Z,98810.13
2024-02-04T06:29:13.282Z,98818.16
2024-02-04T06:32:21.525Z,98833.73
2024-02-04T06:35:27.722Z,98845.36
2024-02-04T06:38:33.898Z,98861.27
2024-02-04T06:41:40.053Z,98841.33
2024-02-04T06:44:47.863Z,98818.73
2024-02-04T06:47:54.049Z,98812.89
2024-02-04T06:51:00.178Z,98812.24
2024-02-04T06:54:06.483Z,98818.52
2024-02-04T06:57:10.973Z,98826.89
2024-02-04T07:00:18.872Z,98840.17
2024-02-04T07:03:25.159Z,98847.42
2024-02-04T07:06:29.802Z,98844.36
2024-02-04T07:09:36.141Z,98851.73
2024-02-04T07:12:42.369Z,98850.15
2024-02-04T07:15:48.574Z,98848.23
2024-02-04T07:18:53.182Z,98844.98
2024-02-04T07:21:59.332Z,98836.80
2024-02-04T07:25:06.282Z,98832.67
2024-02-04T07:28:12.488Z,98840.98
2024-02-04T07:31:20.407Z,98852.41
2024-02-04T07:34:26.787Z,98847.19
2024-02-04T07:37:32.986Z,98824.02
2024-02-04T07:40:39.028Z,98822.73
2024-02-04T07:43:45.277Z,98826.09
2024-02-04T07:46:50.005Z,98828.37
2024-02-04T07:49:56.380Z,98835.02
2024-02-04T07:53:02.554Z,98838.63
2024-02-04T07:56:09.997Z,98834.64
2024-02-04T07:59:16.122Z,98839.54
2024-02-04T08:02:22.372Z,98848.54
2024-02-04T08:05:26.939Z,98855.75
2024-02-04T08:08:33.298Z,98857.17
2024-02-04T08:11:39.465Z,98854.55
2024-02-04T08:14:45.636Z,98855.36
2024-02-04T08:17:52.408Z,98873.88
2024-02-04T08:20:59.356Z,98877.10
2024-02-04T08:24:05.665Z,98873.89
2024-02-04T08:27:11.978Z,98879.10
2024-02-04T08:30:18.109Z,98879.30
2024-02-04T08:33:24.279Z,98877.58
2024-02-04T08:36:32.016Z,98880.92
2024-02-04T08:39:38.113Z,98887.31
2024-02-04T08:42:44.797Z,98882.60
2024-02-04T08:45:51.029Z,98888.15
2024-02-04T08:48:57.218Z,98901.22
2024-02-04T08:52:02.143Z,98899.41
2024-02-04T08:55:10.530Z,98897.91
2024-02-04T08:58:17.522Z,98896.48
2024-02-04T09:01:23.815Z,98890.84
2024-02-04T09:04:28.549Z,98887.46
2024-02-04T09:07:34.985Z,98887.39
2024-02-04T09:10:41.360Z,98888.05
2024-02-04T09:13:46.124Z,98892.28
2024-02-04T09:16:52.318Z,98888.94
2024-02-04T09:19:57.148Z,98886.85
2024-02-04T09:23:04.231Z,98886.53
2024-02-04T09:26:10.460Z,98897.80
2024-02-04T09:29:15.125Z,98906.63
2024-02-04T09:32:21.256Z,98902.26
2024-02-04T09:35:27.721Z,98900.69
2024-02-04T09:38:34.110Z,98899.06
2024-02-04T09:41:38.949Z,98909.04
2024-02-04T09:44:45.577Z,98916.43
2024-02-04T09:47:56.309Z,98918.57
2024-02-04T09:51:03.135Z,98927.80
2024-02-04T09:54:12.036Z,98932.02
2024-02-04T09:57:19.021Z,98924.16
2024-02-04T10:00:25.775Z,98923.88
2024-02-04T10:03:32.206Z,98924.37
2024-02-04T10:06:38.750Z,98919.14
2024-02-04T10:09:45.431Z,98921.59
2024-02-04T10:12:51.553Z,98919.84
2024-02-04T10:15:57.973Z,98914.77
2024-02-04T10:19:05.077Z,98894.11
2024-02-04T10:22:11.525Z,98874.20
2024-02-04T10:25:17.969Z,98868.30
2024-02-04T10:28:24.394Z,98865.55
2024-02-04T10:31:31.054Z,98863.27
2024-02-04T10:34:41.348Z,98860.84
2024-02-04T10:37:47.528Z,98862.40
2024-02-04T10:40:56.906Z,98850.83
2024-02-04T10:44:05.235Z,98837.87
2024-02-04T10:47:19.429Z,98838.52
2024-02-04T10:50:31.055Z,98825.25
2024-02-04T10:53:38.159Z,98818.61
2024-02-04T10:56:47.315Z,98812.14
2024-02-04T10:59:53.802Z,98802.73
2024-02-04T11:03:01.661Z,98805.57
2024-02-04T11:06:08.420Z,98802.25
2024-02-04T11:09:15.828Z,98797.84
2024-02-04T11:12:24.135Z,98791.02
2024-02-04T11:15:36.825Z,98794.06
2024-02-04T11:19:01.086Z,98783.70
2024-02-04T11:22:23.298Z,98777.76
2024-02-04T11:25:45.778Z,98765.29
2024-02-04T11:28:52.003Z,98758.01
2024-02-04T11:31:59.286Z,98755.70
2024-02-04T11:35:09.250Z,98758.02
2024-02-04T11:38:19.441Z,98753.34
2024-02-04T11:41:29.650Z,98746.76
2024-02-04T11:44:35.726Z,98742.17
2024-02-04T11:47:41.157Z,98718.57
2024-02-04T11:50:54.907Z,98718.60
2024-02-04T11:54:02.891Z,98723.32
2024-02-04T11:57:09.314Z,98720.39
2024-02-04T12:00:18.008Z,98707.74
2024-02-04T12:03:33.118Z,98706.09
2024-02-04T12:06:39.653Z,98704.98
2024-02-04T12:09:46.606Z,98699.73
2024-02-04T12:12:52.852Z,98690.23
2024-02-04T12:15:57.617Z,98675.50
2024-02-04T12:19:05.130Z,98667.92
2024-02-04T12:22:11.804Z,98662.90
2024-02-04T12:25:19.003Z,98655.87
2024-02-04T12:28:25.373Z,98648.76
2024-02-04T12:31:33.770Z,98641.79
2024-02-04T12:34:41.679Z,98626.64
2024-02-04T12:37:55.706Z,98619.43
2024-02-04T12:41:07.021Z,98622.73
2024-02-04T12:44:13.129Z,98616.05
2024-02-04T12:47:21.105Z,98599.76
2024-02-04T12:50:28.174Z,98603.36
2024-02-04T12:53:34.637Z,98601.23
2024-02-04T12:56:48.702Z,98587.43
2024-02-04T12:59:55.194Z,98578.08
2024-02-04T13:03:03.707Z,98573.67
2024-02-04T13:06:10.978Z,98572.42
2024-02-04T13:09:18.389Z,98568.29
2024-02-04T13:12:24.558Z,98559.77
2024-02-04T13:15:29.172Z,98561.48
2024-02-04T13:18:35.380Z,98557.23
2024-02-04T13:21:41.640Z,98551.40
2024-02-04T13:24:46.066Z,98546.02
2024-02-04T13:27:53.043Z,98538.32
2024-02-04T13:30:59.144Z,98549.67
2024-02-04T13:34:05.649Z,98557.66
2024-02-04T13:37:12.160Z,98558.81
2024-02-04T13:40:20.110Z,98548.59
2024-02-04T13:43:26.375Z,98542.84
2024-02-04T13:46:32.728Z,98540.46
2024-02-04T13:49:38.940Z,98528.59
2024-02-04T13:52:45.043Z,98532.20
2024-02-04T13:55:51.126Z,98537.13
2024-02-04T13:58:57.338Z,98530.34
2024-02-04T14:02:02.940Z,98530.86
2024-02-04T14:05:10.003Z,98527.84
2024-02-04T14:08:16.193Z,98522.59
2024-02-04T14:11:20.998Z,98532.92
2024-02-04T14:14:27.685Z,98529.27
2024-02-04T14:17:33.871Z,98528.42
2024-02-04T14:20:40.099Z,98541.73
2024-02-04T14:23:45.095Z,98559.12
2024-02-04T14:26:51.301Z,98576.06
2024-02-04T14:29:55.700Z,98585.66
2024-02-04T14:33:01.790Z,98579.11
2024-02-04T14:36:09.053Z,98579.13
2024-02-04T14:39:15.406Z,98573.80
2024-02-04T14:42:21.742Z,98552.75
2024-02-04T14:45:27.894Z,98539.47
2024-02-04T14:48:34.233Z,98534.88
2024-02-04T14:51:44.804Z,98528.12
2024-02-04T14:54:50.975Z,98527.73
2024-02-04T14:57:57.233Z,98522.68
2024-02-04T15:01:05.569Z,98526.02
2024-02-04T15:04:13.712Z,98533.64
2024-02-04T15:07:19.784Z,98510.23
2024-02-04T15:10:26.068Z,98496.59
2024-02-04T15:13:33.976Z,98514.58
2024-02-04T15:16:42.173Z,98511.73
2024-02-04T15:19:49.538Z,98508.46
2024-02-04T15:22:57.579Z,98504.02
2024-02-04T15:26:06.237Z,98497.37
2024-02-04T15:29:16.455Z,98501.83
2024-02-04T15:32:23.414Z,98492.56
2024-02-04T15:35:30.523Z,98484.30
2024-02-04T15:38:36.746Z,98475.67
2024-02-04T15:41:41.496Z,98469.17
2024-02-04T15:44:47.977Z,98467.63
2024-02-04T15:47:55.661Z,98462.47
2024-02-04T15:51:03.089Z,98465.58
2024-02-04T15:54:10.814Z,98462.75
2024-02-04T15:57:18.664Z,98462.65
2024-02-04T16:00:27.422Z,98458.41
2024-02-04T16:03:34.962Z,98444.08
2024-02-04T16:06:42.395Z,98444.95
2024-02-04T16:09:50.252Z,98449.48
2024-02-04T16:13:03.216Z,98442.84
2024-02-04T16:16:14.513Z,98444.61
2024-02-04T16:19:22.065Z,98441.31
2024-02-04T16:22:28.599Z,98435.43
2024-02-04T16:25:36.122Z,98431.34
2024-02-04T16:28:42.158Z,98428.46
2024-02-04T16:31:48.305Z,98428.09
2024-02-04T16:34:53.783Z,98424.70
2024-02-04T16:38:00.608Z,98425.29
2024-02-04T16:41:08.711Z,98428.68
2024-02-04T16:44:15.272Z,98433.66
2024-02-04T16:47:21.536Z,98428.73
2024-02-04T16:50:27.672Z,98423.98
2024-02-04T16:53:34.118Z,98434.58
2024-02-04T16:56:40.877Z,98435.98
2024-02-04T16:59:47.301Z,98423.19
2024-02-04T17:02:54.929Z,98406.44
2024-02-04T17:06:02.181Z,98414.17
2024-02-04T17:09:15.875Z,98404.80
2024-02-04T17:12:25.516Z,98393.11
2024-02-04T17:15:32.969Z,98390.98
2024-02-04T17:18:47.459Z,98398.20
2024-02-04T17:21:58.911Z,98387.71
2024-02-04T17:25:08.578Z,98381.41
2024-02-04T17:28:16.156Z,98375.92
2024-02-04T17:31:23.645Z,98379.20
2024-02-04T17:34:31.097Z,98393.12
2024-02-04T17:37:38.273Z,98390.09
2024-02-04T17:40:44.441Z,98386.58
2024-02-04T17:43:48.957Z,98400.59
2024-02-04T17:46:55.102Z,98405.29
2024-02-04T17:50:01.521Z,98402.21
2024-02-04T17:53:08.862Z,98392.56
2024-02-04T17:56:18.912Z,98386.23
2024-02-04T17:59:25.117Z,98392.21
2024-02-04T18:02:41.929Z,98377.42
2024-02-04T18:05:53.652Z,98374.40
2024-02-04T18:08:59.702Z,98388.66
2024-02-04T18:12:06.236Z,98411.59
2024-02-04T18:15:14.512Z,98381.59
2024-02-04T18:18:20.676Z,98361.67
2024-02-04T18:21:25.469Z,98362.08
2024-02-04T18:24:32.340Z,98361.58
2024-02-04T18:27:39.737Z,98367.25
2024-02-04T18:30:46.160Z,98366.44
2024-02-04T18:33:53.427Z,98368.34
2024-02-04T18:36:59.683Z,98378.92
2024-02-04T18:40:05.775Z,98380.06
2024-02-04T18:43:20.251Z,98394.73
2024-02-04T18:46:26.698Z,98398.52
2024-02-04T18:49:35.491Z,98405.52
2024-02-04T18:52:41.653Z,98399.47
2024-02-04T18:55:50.322Z,98401.63
2024-02-04T18:58:58.124Z,98396.88
2024-02-04T19:02:04.282Z,98391.09
2024-02-04T19:05:09.733Z,98399.31
2024-02-04T19:08:16.142Z,98398.62
2024-02-04T19:11:23.051Z,98407.17
2024-02-04T19:14:29.495Z,98413.17
2024-02-04T19:17:39.638Z,98414.95
2024-02-04T19:20:47.081Z,98421.25
2024-02-04T19:23:51.833Z,98422.92
2024-02-04T19:26:57.957Z,98427.73
2024-02-04T19:30:04.032Z,98430.94
2024-02-04T19:33:12.411Z,98434.79
2024-02-04T19:36:19.657Z,98426.62
2024-02-04T19:39:25.727Z,98423.91
2024-02-04T19:42:32.143Z,98430.85
2024-02-04T19:45:38.368Z,98428.92
2024-02-04T19:48:43.167Z,98438.66
2024-02-04T19:51:50.192Z,98438.45
2024-02-04T19:54:56.679Z,98433.80
2024-02-04T19:58:03.838Z,98428.92
2024-02-04T20:01:10.202Z,98419.45
2024-02-04T20:04:14.817Z,98414.48
2024-02-04T20:07:22.306Z,98415.97
2024-02-04T20:10:28.641Z,98417.46
2024-02-04T20:13:38.871Z,98413.32
2024-02-04T20:16:45.272Z,98412.42
2024-02-04T20:19:49.812Z,98414.65
2024-02-04T20:22:57.891Z,98414.65
2024-02-04T20:26:05.088Z,98418.70
2024-02-04T20:29:11.199Z,98415.92
2024-02-04T20:32:17.418Z,98414.98
2024-02-04T20:35:24.301Z,98413.63
2024-02-04T20:38:30.361Z,98409.19
2024-02-04T20:41:36.503Z,98411.46
2024-02-04T20:44:43.936Z,98408.65
2024-02-04T20:47:50.705Z,98402.73
2024-02-04T20:50:57.460Z,98397.98
2024-02-04T20:54:04.055Z,98397.91
2024-02-04T20:57:10.312Z,98400.98
2024-02-04T21:00:19.156Z,98395.84
2024-02-04T21:03:25.312Z,98394.86
2024-02-04T21:06:33.021Z,98398.45
2024-02-04T21:09:39.971Z,98391.95
2024-02-04T21:12:46.209Z,98387.02
2024-02-04T21:15:50.749Z,98386.19
2024-02-04T21:18:57.065Z,98386.62
2024-02-04T21:22:03.589Z,98387.88
2024-02-04T21:25:11.321Z,98387.66
2024-02-04T21:28:17.419Z,98386.55
2024-02-04T21:31:22.049Z,98381.77
2024-02-04T21:34:28.927Z,98383.48
2024-02-04T21:37:35.013Z,98385.80
2024-02-04T21:40:43.563Z,98385.23
2024-02-04T21:43:49.558Z,98382.63
2024-02-04T21:46:55.696Z,98395.88
2024-02-04T21:50:02.901Z,98425.65
2024-02-04T21:53:10.192Z,98424.12
2024-02-04T21:56:16.316Z,98398.98
2024-02-04T21:59:21.720Z,98397.80
2024-02-04T22:02:28.351Z,98393.18
2024-02-04T22:05:36.013Z,98399.71
2024-02-04T22:08:42.130Z,98407.59
2024-02-04T22:11:48.378Z,98414.70
2024-02-04T22:14:52.688Z,98416.02
2024-02-04T22:18:01.444Z,98412.75
2024-02-04T22:21:09.717Z,98397.05
2024-02-04T22:24:15.847Z,98378.70
2024-02-04T22:27:22.530Z,98372.72
2024-02-04T22:30:29.197Z,98364.87
2024-02-04T22:33:35.432Z,98366.90
2024-02-04T22:36:40.016Z,98377.97
2024-02-04T22:39:46.693Z,98381.45
2024-02-04T22:42:52.989Z,98391.73
2024-02-04T22:45:57.490Z,98381.39
2024-02-04T22:49:03.842Z,98372.02
2024-02-04T22:52:10.294Z,98369.13
2024-02-04T22:55:18.410Z,98381.86
2024-02-04T22:58:24.597Z,98378.23
2024-02-04T23:01:30.792Z,98375.58
2024-02-04T23:04:37.254Z,98377.17
2024-02-04T23:07:50.757Z,98381.80
2024-02-04T23:10:58.399Z,98382.75
2024-02-04T23:14:05.459Z,98383.55
2024-02-04T23:17:12.121Z,98382.44
2024-02-04T23:20:20.402Z,98377.27
2024-02-04T23:23:27.878Z,98372.98
2024-02-04T23:26:33.972Z,98374.86
2024-02-04T23:29:40.117Z,98371.99
2024-02-04T23:32:46.317Z,98375.50
2024-02-04T23:35:50.900Z,98379.48
2024-02-04T23:38:57.083Z,98383.80
2024-02-04T23:42:03.153Z,98384.65
2024-02-04T23:45:11.431Z,98380.73
2024-02-04T23:48:17.755Z,98385.73
2024-02-04T23:51:22.736Z,98386.67
2024-02-04T23:54:28.860Z,98382.27
2024-02-04T23:57:35.937Z,98382.91
